sensor_id;sensor_type;location;lat;lon;timestamp;P1;durP1;ratioP1;P2;durP2;ratioP2
45382;SDS011;42455;51.660;5.824;2023-03-04T00:02:00;11.0;;;3.0;;
45382;SDS011;42455;51.660;5.824;2023-03-04T00:07:07;11.0;;;3.0;;
45382;SDS011;42455;51.660;5.824;2023-03-04T00:12:13;11.0;;;3.0;;
45382;SDS011;42455;51.660;5.824;2023-03-04T00:17:19;11.0;;;3.0;;
45382;SDS011;42455;51.660;5.824;2023-03-04T00:22:25;14.0;;;3.5;;
45382;SDS011;42455;51.660;5.824;2023-03-04T00:27:30;13.0;;;3.0;;
45382;SDS011;42455;51.660;5.824;2023-03-04T00:32:37;12.0;;;3.0;;
45382;SDS011;42455;51.660;5.824;2023-03-04T00:37:43;10.5;;;3.0;;
45382;SDS011;42455;51.660;5.824;2023-03-04T00:42:48;11.0;;;3.0;;
45382;SDS011;42455;51.660;5.824;2023-03-04T00:47:54;11.0;;;3.0;;
45382;SDS011;42455;51.660;5.824;2023-03-04T00:53:00;10.0;;;3.0;;
45382;SDS011;42455;51.660;5.824;2023-03-04T00:58:07;11.0;;;3.0;;
45382;SDS011;42455;51.660;5.824;2023-03-04T01:03:13;10.0;;;3.0;;
45382;SDS011;42455;51.660;5.824;2023-03-04T01:08:19;12.5;;;3.0;;
45382;SDS011;42455;51.660;5.824;2023-03-04T01:13:25;11.5;;;3.0;;
45382;SDS011;42455;51.660;5.824;2023-03-04T01:18:32;12.5;;;3.0;;
45382;SDS011;42455;51.660;5.824;2023-03-04T01:23:38;9.0;;;2.0;;
45382;SDS011;42455;51.660;5.824;2023-03-04T01:28:44;10.0;;;3.0;;
45382;SDS011;42455;51.660;5.824;2023-03-04T01:33:50;10.0;;;3.0;;
45382;SDS011;42455;51.660;5.824;2023-03-04T01:38:56;11.0;;;3.0;;
45382;SDS011;42455;51.660;5.824;2023-03-04T01:44:02;11.0;;;3.0;;
45382;SDS011;42455;51.660;5.824;2023-03-04T01:49:10;12.0;;;3.0;;
45382;SDS011;42455;51.660;5.824;2023-03-04T01:54:15;10.0;;;3.0;;
45382;SDS011;42455;51.660;5.824;2023-03-04T01:59:22;9.0;;;3.0;;
45382;SDS011;42455;51.660;5.824;2023-03-04T02:04:28;9.5;;;2.0;;
45382;SDS011;42455;51.660;5.824;2023-03-04T02:09:34;7.0;;;2.0;;
45382;SDS011;42455;51.660;5.824;2023-03-04T02:14:40;7.0;;;2.0;;
45382;SDS011;42455;51.660;5.824;2023-03-04T02:20:11;9.0;;;2.0;;
45382;SDS011;42455;51.660;5.824;2023-03-04T02:24:53;9.0;;;2.0;;
45382;SDS011;42455;51.660;5.824;2023-03-04T02:29:57;8.0;;;2.0;;
45382;SDS011;42455;51.660;5.824;2023-03-04T02:35:04;9.5;;;2.0;;
45382;SDS011;42455;51.660;5.824;2023-03-04T02:40:12;8.0;;;2.0;;
45382;SDS011;42455;51.660;5.824;2023-03-04T02:45:35;11.0;;;2.0;;
45382;SDS011;42455;51.660;5.824;2023-03-04T02:50:23;8.0;;;3.0;;
45382;SDS011;42455;51.660;5.824;2023-03-04T02:55:28;10.0;;;2.5;;
45382;SDS011;42455;51.660;5.824;2023-03-04T03:00:35;8.0;;;2.0;;
45382;SDS011;42455;51.660;5.824;2023-03-04T03:05:41;11.0;;;2.0;;
45382;SDS011;42455;51.660;5.824;2023-03-04T03:10:47;7.0;;;2.0;;
45382;SDS011;42455;51.660;5.824;2023-03-04T03:15:53;10.0;;;3.0;;
45382;SDS011;42455;51.660;5.824;2023-03-04T03:21:00;9.0;;;2.0;;
45382;SDS011;42455;51.660;5.824;2023-03-04T03:26:06;7.0;;;2.0;;
45382;SDS011;42455;51.660;5.824;2023-03-04T03:31:12;9.0;;;2.0;;
45382;SDS011;42455;51.660;5.824;2023-03-04T03:36:18;8.0;;;2.0;;
45382;SDS011;42455;51.660;5.824;2023-03-04T03:41:24;7.0;;;2.0;;
45382;SDS011;42455;51.660;5.824;2023-03-04T03:46:30;7.0;;;2.0;;
45382;SDS011;42455;51.660;5.824;2023-03-04T03:51:37;7.0;;;2.0;;
45382;SDS011;42455;51.660;5.824;2023-03-04T03:56:43;7.0;;;2.0;;
45382;SDS011;42455;51.660;5.824;2023-03-04T04:01:49;8.0;;;2.0;;
45382;SDS011;42455;51.660;5.824;2023-03-04T04:06:55;7.0;;;2.0;;
45382;SDS011;42455;51.660;5.824;2023-03-04T04:12:02;8.0;;;2.0;;
45382;SDS011;42455;51.660;5.824;2023-03-04T04:17:07;7.0;;;2.0;;
45382;SDS011;42455;51.660;5.824;2023-03-04T04:22:14;8.0;;;2.0;;
45382;SDS011;42455;51.660;5.824;2023-03-04T04:27:18;7.5;;;2.0;;
45382;SDS011;42455;51.660;5.824;2023-03-04T04:32:24;8.0;;;3.0;;
45382;SDS011;42455;51.660;5.824;2023-03-04T04:37:31;8.0;;;2.0;;
45382;SDS011;42455;51.660;5.824;2023-03-04T04:42:37;9.0;;;2.0;;
45382;SDS011;42455;51.660;5.824;2023-03-04T04:47:43;8.0;;;2.0;;
45382;SDS011;42455;51.660;5.824;2023-03-04T04:52:49;10.0;;;2.0;;
45382;SDS011;42455;51.660;5.824;2023-03-04T04:57:56;6.0;;;2.0;;
45382;SDS011;42455;51.660;5.824;2023-03-04T05:03:02;10.0;;;2.0;;
45382;SDS011;42455;51.660;5.824;2023-03-04T05:08:08;6.0;;;2.0;;
45382;SDS011;42455;51.660;5.824;2023-03-04T05:13:14;8.0;;;2.0;;
45382;SDS011;42455;51.660;5.824;2023-03-04T05:18:20;8.0;;;2.0;;
45382;SDS011;42455;51.660;5.824;2023-03-04T05:23:27;8.0;;;2.0;;
45382;SDS011;42455;51.660;5.824;2023-03-04T05:28:33;7.0;;;2.0;;
45382;SDS011;42455;51.660;5.824;2023-03-04T05:33:39;9.0;;;2.0;;
45382;SDS011;42455;51.660;5.824;2023-03-04T05:38:45;5.0;;;2.0;;
45382;SDS011;42455;51.660;5.824;2023-03-04T05:43:51;6.0;;;2.0;;
45382;SDS011;42455;51.660;5.824;2023-03-04T05:48:58;7.0;;;1.0;;
45382;SDS011;42455;51.660;5.824;2023-03-04T05:54:04;6.0;;;2.0;;
45382;SDS011;42455;51.660;5.824;2023-03-04T05:59:10;9.0;;;2.0;;
45382;SDS011;42455;51.660;5.824;2023-03-04T06:04:16;6.5;;;2.0;;
45382;SDS011;42455;51.660;5.824;2023-03-04T06:09:22;7.5;;;2.0;;
45382;SDS011;42455;51.660;5.824;2023-03-04T06:14:28;9.0;;;2.0;;
45382;SDS011;42455;51.660;5.824;2023-03-04T06:19:34;4.0;;;1.0;;
45382;SDS011;42455;51.660;5.824;2023-03-04T06:24:40;4.0;;;1.0;;
45382;SDS011;42455;51.660;5.824;2023-03-04T06:29:46;6.0;;;1.0;;
45382;SDS011;42455;51.660;5.824;2023-03-04T06:34:53;6.0;;;1.0;;
45382;SDS011;42455;51.660;5.824;2023-03-04T06:39:59;5.0;;;1.0;;
45382;SDS011;42455;51.660;5.824;2023-03-04T06:45:05;5.0;;;1.0;;
45382;SDS011;42455;51.660;5.824;2023-03-04T06:50:12;5.0;;;1.0;;
45382;SDS011;42455;51.660;5.824;2023-03-04T06:55:17;5.0;;;1.0;;
45382;SDS011;42455;51.660;5.824;2023-03-04T07:00:23;6.0;;;1.5;;
45382;SDS011;42455;51.660;5.824;2023-03-04T07:05:30;6.0;;;1.0;;
45382;SDS011;42455;51.660;5.824;2023-03-04T07:10:36;5.0;;;1.0;;
45382;SDS011;42455;51.660;5.824;2023-03-04T07:15:42;6.0;;;2.0;;
45382;SDS011;42455;51.660;5.824;2023-03-04T07:20:50;6.0;;;2.0;;
45382;SDS011;42455;51.660;5.824;2023-03-04T07:25:55;6.0;;;1.0;;
45382;SDS011;42455;51.660;5.824;2023-03-04T07:31:06;5.5;;;2.0;;
45382;SDS011;42455;51.660;5.824;2023-03-04T07:36:07;7.0;;;1.0;;
45382;SDS011;42455;51.660;5.824;2023-03-04T07:41:13;7.0;;;1.0;;
45382;SDS011;42455;51.660;5.824;2023-03-04T07:46:19;5.0;;;1.0;;
45382;SDS011;42455;51.660;5.824;2023-03-04T07:51:26;7.0;;;2.0;;
45382;SDS011;42455;51.660;5.824;2023-03-04T07:56:32;6.0;;;2.0;;
45382;SDS011;42455;51.660;5.824;2023-03-04T08:01:37;5.0;;;1.0;;
45382;SDS011;42455;51.660;5.824;2023-03-04T08:06:43;4.0;;;2.0;;
45382;SDS011;42455;51.660;5.824;2023-03-04T08:11:49;5.0;;;1.0;;
45382;SDS011;42455;51.660;5.824;2023-03-04T08:16:56;6.0;;;2.0;;
45382;SDS011;42455;51.660;5.824;2023-03-04T08:22:02;6.0;;;2.0;;
45382;SDS011;42455;51.660;5.824;2023-03-04T08:27:08;6.0;;;1.0;;
45382;SDS011;42455;51.660;5.824;2023-03-04T08:32:14;5.5;;;2.0;;
45382;SDS011;42455;51.660;5.824;2023-03-04T08:37:20;5.0;;;1.0;;
45382;SDS011;42455;51.660;5.824;2023-03-04T08:42:27;4.0;;;1.0;;
45382;SDS011;42455;51.660;5.824;2023-03-04T08:47:33;7.0;;;1.5;;
45382;SDS011;42455;51.660;5.824;2023-03-04T08:52:39;4.0;;;1.0;;
45382;SDS011;42455;51.660;5.824;2023-03-04T08:57:45;4.0;;;1.0;;
45382;SDS011;42455;51.660;5.824;2023-03-04T09:02:51;5.5;;;1.0;;
45382;SDS011;42455;51.660;5.824;2023-03-04T09:07:58;7.0;;;1.0;;
45382;SDS011;42455;51.660;5.824;2023-03-04T09:13:04;5.0;;;1.0;;
45382;SDS011;42455;51.660;5.824;2023-03-04T09:18:10;5.0;;;1.0;;
45382;SDS011;42455;51.660;5.824;2023-03-04T09:23:16;4.0;;;1.0;;
45382;SDS011;42455;51.660;5.824;2023-03-04T09:28:23;4.0;;;1.0;;
45382;SDS011;42455;51.660;5.824;2023-03-04T09:33:30;4.5;;;1.0;;
45382;SDS011;42455;51.660;5.824;2023-03-04T09:38:35;3.0;;;1.0;;
45382;SDS011;42455;51.660;5.824;2023-03-04T09:43:41;2.5;;;1.0;;
45382;SDS011;42455;51.660;5.824;2023-03-04T09:48:47;2.0;;;1.0;;
45382;SDS011;42455;51.660;5.824;2023-03-04T09:54:05;2.0;;;1.0;;
45382;SDS011;42455;51.660;5.824;2023-03-04T09:59:04;2.0;;;1.0;;
45382;SDS011;42455;51.660;5.824;2023-03-04T10:04:05;2.0;;;1.0;;
45382;SDS011;42455;51.660;5.824;2023-03-04T10:09:16;2.0;;;1.0;;
45382;SDS011;42455;51.660;5.824;2023-03-04T10:14:20;3.0;;;1.0;;
45382;SDS011;42455;51.660;5.824;2023-03-04T10:19:33;2.0;;;1.0;;
45382;SDS011;42455;51.660;5.824;2023-03-04T10:24:28;3.0;;;1.0;;
45382;SDS011;42455;51.660;5.824;2023-03-04T10:29:35;2.0;;;1.0;;
45382;SDS011;42455;51.660;5.824;2023-03-04T10:34:40;2.0;;;1.0;;
45382;SDS011;42455;51.660;5.824;2023-03-04T10:39:47;4.0;;;1.0;;
45382;SDS011;42455;51.660;5.824;2023-03-04T10:44:54;3.0;;;1.0;;
45382;SDS011;42455;51.660;5.824;2023-03-04T10:50:01;3.0;;;1.0;;
45382;SDS011;42455;51.660;5.824;2023-03-04T10:55:06;4.0;;;1.0;;
45382;SDS011;42455;51.660;5.824;2023-03-04T11:00:29;2.0;;;1.0;;
45382;SDS011;42455;51.660;5.824;2023-03-04T11:05:19;3.0;;;1.0;;
45382;SDS011;42455;51.660;5.824;2023-03-04T11:10:39;2.0;;;1.0;;
45382;SDS011;42455;51.660;5.824;2023-03-04T11:15:30;2.0;;;1.0;;
45382;SDS011;42455;51.660;5.824;2023-03-04T11:20:47;2.0;;;1.0;;
45382;SDS011;42455;51.660;5.824;2023-03-04T11:25:43;2.0;;;1.0;;
45382;SDS011;42455;51.660;5.824;2023-03-04T11:31:02;2.0;;;1.0;;
45382;SDS011;42455;51.660;5.824;2023-03-04T11:35:57;2.0;;;1.0;;
45382;SDS011;42455;51.660;5.824;2023-03-04T11:41:02;2.0;;;1.0;;
45382;SDS011;42455;51.660;5.824;2023-03-04T11:46:53;3.0;;;1.0;;
45382;SDS011;42455;51.660;5.824;2023-03-04T11:51:51;2.0;;;1.0;;
45382;SDS011;42455;51.660;5.824;2023-03-04T11:56:54;2.0;;;1.0;;
45382;SDS011;42455;51.660;5.824;2023-03-04T12:02:15;1.0;;;1.0;;
45382;SDS011;42455;51.660;5.824;2023-03-04T12:08:09;3.0;;;1.0;;
45382;SDS011;42455;51.660;5.824;2023-03-04T12:12:56;2.0;;;1.0;;
45382;SDS011;42455;51.660;5.824;2023-03-04T12:18:20;1.0;;;1.0;;
45382;SDS011;42455;51.660;5.824;2023-03-04T12:23:53;1.0;;;1.0;;
45382;SDS011;42455;51.660;5.824;2023-03-04T12:28:46;1.0;;;1.0;;
45382;SDS011;42455;51.660;5.824;2023-03-04T12:33:35;1.0;;;1.0;;
45382;SDS011;42455;51.660;5.824;2023-03-04T12:39:10;1.0;;;1.0;;
45382;SDS011;42455;51.660;5.824;2023-03-04T12:44:08;2.0;;;1.0;;
45382;SDS011;42455;51.660;5.824;2023-03-04T12:47:27;7.0;;;5.0;;
45382;SDS011;42455;51.660;5.824;2023-03-04T12:53:30;1.0;;;1.0;;
45382;SDS011;42455;51.660;5.824;2023-03-04T12:57:32;2.0;;;1.0;;
45382;SDS011;42455;51.660;5.824;2023-03-04T13:03:11;2.0;;;1.0;;
45382;SDS011;42455;51.660;5.824;2023-03-04T13:08:27;2.0;;;1.0;;
45382;SDS011;42455;51.660;5.824;2023-03-04T13:12:51;1.5;;;1.0;;
45382;SDS011;42455;51.660;5.824;2023-03-04T13:17:57;1.0;;;1.0;;
45382;SDS011;42455;51.660;5.824;2023-03-04T13:23:17;1.0;;;1.0;;
45382;SDS011;42455;51.660;5.824;2023-03-04T13:28:26;2.0;;;1.0;;
45382;SDS011;42455;51.660;5.824;2023-03-04T13:33:49;2.0;;;1.0;;
45382;SDS011;42455;51.660;5.824;2023-03-04T13:38:22;1.0;;;0.0;;
45382;SDS011;42455;51.660;5.824;2023-03-04T13:43:35;0.0;;;0.0;;
45382;SDS011;42455;51.660;5.824;2023-03-04T13:48:33;1.0;;;0.0;;
45382;SDS011;42455;51.660;5.824;2023-03-04T13:53:39;1.0;;;0.0;;
45382;SDS011;42455;51.660;5.824;2023-03-04T13:58:46;2.0;;;1.0;;
45382;SDS011;42455;51.660;5.824;2023-03-04T14:03:50;2.0;;;1.0;;
45382;SDS011;42455;51.660;5.824;2023-03-04T14:08:56;4.0;;;1.0;;
45382;SDS011;42455;51.660;5.824;2023-03-04T14:14:03;3.0;;;1.0;;
45382;SDS011;42455;51.660;5.824;2023-03-04T14:19:23;4.0;;;1.0;;
45382;SDS011;42455;51.660;5.824;2023-03-04T14:24:16;4.0;;;1.0;;
45382;SDS011;42455;51.660;5.824;2023-03-04T14:29:29;6.0;;;1.0;;
45382;SDS011;42455;51.660;5.824;2023-03-04T14:34:29;5.0;;;1.0;;
45382;SDS011;42455;51.660;5.824;2023-03-04T14:39:33;4.0;;;1.0;;
45382;SDS011;42455;51.660;5.824;2023-03-04T14:44:46;4.0;;;1.0;;
45382;SDS011;42455;51.660;5.824;2023-03-04T14:49:47;5.0;;;1.0;;
45382;SDS011;42455;51.660;5.824;2023-03-04T14:54:58;5.0;;;1.0;;
45382;SDS011;42455;51.660;5.824;2023-03-04T15:00:14;5.0;;;2.0;;
45382;SDS011;42455;51.660;5.824;2023-03-04T15:05:16;3.0;;;1.0;;
45382;SDS011;42455;51.660;5.824;2023-03-04T15:10:11;5.0;;;1.0;;
45382;SDS011;42455;51.660;5.824;2023-03-04T15:15:35;5.0;;;1.0;;
45382;SDS011;42455;51.660;5.824;2023-03-04T15:20:28;5.0;;;1.0;;
45382;SDS011;42455;51.660;5.824;2023-03-04T15:25:29;3.0;;;1.0;;
45382;SDS011;42455;51.660;5.824;2023-03-04T15:30:35;3.0;;;1.0;;
45382;SDS011;42455;51.660;5.824;2023-03-04T15:35:44;4.0;;;1.0;;
45382;SDS011;42455;51.660;5.824;2023-03-04T15:40:48;3.0;;;1.0;;
45382;SDS011;42455;51.660;5.824;2023-03-04T15:45:54;2.5;;;1.0;;
45382;SDS011;42455;51.660;5.824;2023-03-04T15:51:00;5.0;;;1.0;;
45382;SDS011;42455;51.660;5.824;2023-03-04T15:56:09;4.0;;;1.0;;
45382;SDS011;42455;51.660;5.824;2023-03-04T16:01:11;3.5;;;1.0;;
45382;SDS011;42455;51.660;5.824;2023-03-04T16:06:18;4.0;;;1.0;;
45382;SDS011;42455;51.660;5.824;2023-03-04T16:11:24;2.5;;;1.0;;
45382;SDS011;42455;51.660;5.824;2023-03-04T16:16:29;2.0;;;1.0;;
45382;SDS011;42455;51.660;5.824;2023-03-04T16:21:36;2.0;;;1.0;;
45382;SDS011;42455;51.660;5.824;2023-03-04T16:26:42;2.0;;;1.0;;
45382;SDS011;42455;51.660;5.824;2023-03-04T16:31:48;3.0;;;1.0;;
45382;SDS011;42455;51.660;5.824;2023-03-04T16:36:54;3.0;;;1.0;;
45382;SDS011;42455;51.660;5.824;2023-03-04T16:42:00;4.0;;;1.0;;
45382;SDS011;42455;51.660;5.824;2023-03-04T16:47:07;4.0;;;1.0;;
45382;SDS011;42455;51.660;5.824;2023-03-04T16:52:28;2.0;;;1.0;;
45382;SDS011;42455;51.660;5.824;2023-03-04T16:57:19;3.0;;;1.0;;
45382;SDS011;42455;51.660;5.824;2023-03-04T17:02:27;4.0;;;1.0;;
45382;SDS011;42455;51.660;5.824;2023-03-04T17:07:31;3.0;;;1.0;;
45382;SDS011;42455;51.660;5.824;2023-03-04T17:12:38;4.0;;;1.0;;
45382;SDS011;42455;51.660;5.824;2023-03-04T17:17:44;4.0;;;1.0;;
45382;SDS011;42455;51.660;5.824;2023-03-04T17:22:50;4.0;;;1.0;;
45382;SDS011;42455;51.660;5.824;2023-03-04T17:27:56;5.0;;;1.0;;
45382;SDS011;42455;51.660;5.824;2023-03-04T17:33:03;2.0;;;1.0;;
45382;SDS011;42455;51.660;5.824;2023-03-04T17:38:09;2.0;;;1.0;;
45382;SDS011;42455;51.660;5.824;2023-03-04T17:43:15;2.0;;;1.0;;
45382;SDS011;42455;51.660;5.824;2023-03-04T17:48:20;1.0;;;1.0;;
45382;SDS011;42455;51.660;5.824;2023-03-04T17:53:27;3.0;;;1.0;;
45382;SDS011;42455;51.660;5.824;2023-03-04T17:58:34;2.0;;;1.0;;
45382;SDS011;42455;51.660;5.824;2023-03-04T18:03:39;3.0;;;1.0;;
45382;SDS011;42455;51.660;5.824;2023-03-04T18:08:45;4.0;;;1.0;;
45382;SDS011;42455;51.660;5.824;2023-03-04T18:13:51;3.0;;;1.0;;
45382;SDS011;42455;51.660;5.824;2023-03-04T18:18:58;2.0;;;1.0;;
45382;SDS011;42455;51.660;5.824;2023-03-04T18:24:04;4.0;;;1.0;;
45382;SDS011;42455;51.660;5.824;2023-03-04T18:29:10;3.0;;;1.0;;
45382;SDS011;42455;51.660;5.824;2023-03-04T18:34:16;5.0;;;1.0;;
45382;SDS011;42455;51.660;5.824;2023-03-04T18:39:23;5.0;;;2.0;;
45382;SDS011;42455;51.660;5.824;2023-03-04T18:44:29;3.0;;;1.0;;
45382;SDS011;42455;51.660;5.824;2023-03-04T18:49:35;5.0;;;1.0;;
45382;SDS011;42455;51.660;5.824;2023-03-04T18:54:41;3.0;;;1.0;;
45382;SDS011;42455;51.660;5.824;2023-03-04T18:59:49;6.0;;;2.0;;
45382;SDS011;42455;51.660;5.824;2023-03-04T19:04:53;6.0;;;2.0;;
45382;SDS011;42455;51.660;5.824;2023-03-04T19:10:00;4.0;;;1.5;;
45382;SDS011;42455;51.660;5.824;2023-03-04T19:15:06;8.0;;;2.0;;
45382;SDS011;42455;51.660;5.824;2023-03-04T19:20:12;8.0;;;4.0;;
45382;SDS011;42455;51.660;5.824;2023-03-04T19:25:18;8.0;;;2.0;;
45382;SDS011;42455;51.660;5.824;2023-03-04T19:30:24;6.5;;;2.0;;
45382;SDS011;42455;51.660;5.824;2023-03-04T19:35:30;6.0;;;2.0;;
45382;SDS011;42455;51.660;5.824;2023-03-04T19:40:36;5.0;;;2.0;;
45382;SDS011;42455;51.660;5.824;2023-03-04T19:45:41;8.0;;;2.0;;
45382;SDS011;42455;51.660;5.824;2023-03-04T19:50:47;6.0;;;2.0;;
45382;SDS011;42455;51.660;5.824;2023-03-04T19:55:52;8.0;;;2.0;;
45382;SDS011;42455;51.660;5.824;2023-03-04T20:00:59;7.0;;;2.0;;
45382;SDS011;42455;51.660;5.824;2023-03-04T20:06:06;7.5;;;2.0;;
45382;SDS011;42455;51.660;5.824;2023-03-04T20:11:12;6.0;;;2.0;;
45382;SDS011;42455;51.660;5.824;2023-03-04T20:16:17;6.0;;;2.0;;
45382;SDS011;42455;51.660;5.824;2023-03-04T20:21:24;9.0;;;2.0;;
45382;SDS011;42455;51.660;5.824;2023-03-04T20:26:30;6.0;;;2.0;;
45382;SDS011;42455;51.660;5.824;2023-03-04T20:31:37;7.5;;;2.0;;
45382;SDS011;42455;51.660;5.824;2023-03-04T20:36:42;7.0;;;2.0;;
45382;SDS011;42455;51.660;5.824;2023-03-04T20:41:48;8.0;;;2.0;;
45382;SDS011;42455;51.660;5.824;2023-03-04T20:46:55;7.5;;;2.0;;
45382;SDS011;42455;51.660;5.824;2023-03-04T20:52:01;9.0;;;2.0;;
45382;SDS011;42455;51.660;5.824;2023-03-04T20:57:07;7.5;;;2.0;;
45382;SDS011;42455;51.660;5.824;2023-03-04T21:02:14;6.0;;;2.0;;
45382;SDS011;42455;51.660;5.824;2023-03-04T21:07:19;7.0;;;2.0;;
45382;SDS011;42455;51.660;5.824;2023-03-04T21:12:26;7.0;;;2.0;;
45382;SDS011;42455;51.660;5.824;2023-03-04T21:17:32;8.0;;;2.0;;
45382;SDS011;42455;51.660;5.824;2023-03-04T21:22:38;8.0;;;2.0;;
45382;SDS011;42455;51.660;5.824;2023-03-04T21:27:44;8.0;;;2.0;;
45382;SDS011;42455;51.660;5.824;2023-03-04T21:32:50;9.0;;;2.0;;
45382;SDS011;42455;51.660;5.824;2023-03-04T21:37:57;8.0;;;3.0;;
45382;SDS011;42455;51.660;5.824;2023-03-04T21:43:02;7.5;;;2.0;;
45382;SDS011;42455;51.660;5.824;2023-03-04T21:48:08;9.0;;;2.0;;
45382;SDS011;42455;51.660;5.824;2023-03-04T21:53:14;7.0;;;2.0;;
45382;SDS011;42455;51.660;5.824;2023-03-04T21:58:19;7.0;;;2.0;;
45382;SDS011;42455;51.660;5.824;2023-03-04T22:03:26;7.0;;;2.0;;
45382;SDS011;42455;51.660;5.824;2023-03-04T22:08:32;9.5;;;2.0;;
45382;SDS011;42455;51.660;5.824;2023-03-04T22:13:38;6.0;;;2.0;;
45382;SDS011;42455;51.660;5.824;2023-03-04T22:18:44;6.0;;;2.0;;
45382;SDS011;42455;51.660;5.824;2023-03-04T22:23:51;7.0;;;2.0;;
45382;SDS011;42455;51.660;5.824;2023-03-04T22:28:57;7.0;;;2.0;;
45382;SDS011;42455;51.660;5.824;2023-03-04T22:34:04;7.0;;;2.0;;
45382;SDS011;42455;51.660;5.824;2023-03-04T22:39:11;7.0;;;2.0;;
45382;SDS011;42455;51.660;5.824;2023-03-04T22:44:15;9.0;;;2.0;;
45382;SDS011;42455;51.660;5.824;2023-03-04T22:49:22;6.0;;;2.0;;
45382;SDS011;42455;51.660;5.824;2023-03-04T22:54:28;7.5;;;2.0;;
45382;SDS011;42455;51.660;5.824;2023-03-04T22:59:34;5.5;;;2.0;;
45382;SDS011;42455;51.660;5.824;2023-03-04T23:04:40;5.0;;;2.0;;
45382;SDS011;42455;51.660;5.824;2023-03-04T23:09:46;4.5;;;2.0;;
45382;SDS011;42455;51.660;5.824;2023-03-04T23:14:53;5.0;;;1.0;;
45382;SDS011;42455;51.660;5.824;2023-03-04T23:19:59;6.0;;;2.0;;
45382;SDS011;42455;51.660;5.824;2023-03-04T23:25:06;7.0;;;2.0;;
45382;SDS011;42455;51.660;5.824;2023-03-04T23:30:12;8.0;;;2.0;;
45382;SDS011;42455;51.660;5.824;2023-03-04T23:35:18;5.0;;;1.5;;
45382;SDS011;42455;51.660;5.824;2023-03-04T23:40:24;6.0;;;2.0;;
45382;SDS011;42455;51.660;5.824;2023-03-04T23:45:29;6.0;;;2.0;;
45382;SDS011;42455;51.660;5.824;2023-03-04T23:50:35;5.0;;;2.0;;
45382;SDS011;42455;51.660;5.824;2023-03-04T23:55:40;5.0;;;2.0;;
